Terminal Aerodrome Forecast
Issued by NWS

Home | Current Version | Previous Version | Text Only | Print | Product List | Glossary On
Versions: 1 2 3 4 5 6 7 8 9 10 11 12 13
000
FTUS43 KIWX 290036 CCA
TAFSBN
TAF COR
KSBN 290036Z 2900/2924 19016KT P6SM BKN100
     FM290300 20015KT P6SM VCTS BKN100CB WS020/22045KT
     FM290800 22013KT P6SM BKN120
     FM291500 23016G26KT P6SM BKN050=

USA.gov is the U.S. government's official web portal to all federal, state and local government web resources and services.